createdAt,value
2023-03-28T00:01:04.078Z,100.00
2023-03-28T00:03:35.377Z,100.00
2023-03-28T00:06:03.830Z,100.00
2023-03-28T00:08:30.694Z,100.00
2023-03-28T00:11:11.489Z,100.00
2023-03-28T00:13:38.419Z,100.00
2023-03-28T00:16:07.842Z,100.00
2023-03-28T00:18:39.226Z,100.00
2023-03-28T00:21:19.477Z,100.00
2023-03-28T00:23:46.143Z,100.00
2023-03-28T00:26:13.226Z,100.00
2023-03-28T00:28:39.645Z,100.00
2023-03-28T00:31:07.623Z,100.00
2023-03-28T00:33:34.425Z,100.00
2023-03-28T00:36:01.153Z,100.00
2023-03-28T00:38:27.923Z,100.00
2023-03-28T00:40:58.384Z,100.00
2023-03-28T00:43:37.703Z,100.00
2023-03-28T00:46:11.081Z,100.00
2023-03-28T00:48:39.829Z,100.00
2023-03-28T00:51:06.484Z,100.00
2023-03-28T00:53:33.859Z,100.00
2023-03-28T00:56:04.313Z,100.00
2023-03-28T00:58:37.922Z,100.00
2023-03-28T01:01:05.010Z,100.00
2023-03-28T01:03:34.999Z,100.00
2023-03-28T01:06:04.674Z,100.00
2023-03-28T01:08:34.276Z,100.00
2023-03-28T01:11:00.767Z,100.00
2023-03-28T01:13:31.511Z,100.00
2023-03-28T01:15:59.519Z,100.00
2023-03-28T01:18:26.308Z,100.00
2023-03-28T01:21:23.866Z,100.00
2023-03-28T01:24:12.642Z,100.00
2023-03-28T01:26:57.861Z,100.00
2023-03-28T01:30:02.469Z,100.00
2023-03-28T01:33:04.825Z,100.00
2023-03-28T01:36:01.424Z,100.00
2023-03-28T01:38:47.036Z,100.00
2023-03-28T01:41:19.161Z,100.00
2023-03-28T01:43:57.113Z,100.00
2023-03-28T01:46:30.240Z,100.00
2023-03-28T01:49:06.474Z,100.00
2023-03-28T01:51:59.637Z,100.00
2023-03-28T01:54:43.965Z,100.00
2023-03-28T01:57:17.477Z,100.00
2023-03-28T01:59:53.622Z,100.00
2023-03-28T02:02:43.809Z,100.00
2023-03-28T02:05:15.550Z,100.00
2023-03-28T02:07:45.269Z,100.00
2023-03-28T02:10:15.692Z,100.00
2023-03-28T02:12:50.776Z,100.00
2023-03-28T02:15:21.661Z,100.00
2023-03-28T02:17:53.398Z,100.00
2023-03-28T02:20:24.736Z,100.00
2023-03-28T02:22:53.606Z,100.00
2023-03-28T02:25:20.294Z,100.00
2023-03-28T02:27:53.057Z,100.00
2023-03-28T02:30:21.117Z,100.00
2023-03-28T02:32:49.649Z,100.00
2023-03-28T02:35:21.909Z,100.00
2023-03-28T02:38:07.193Z,100.00
2023-03-28T02:40:45.294Z,100.00
2023-03-28T02:43:30.206Z,100.00
2023-03-28T02:49:17.763Z,100.00
2023-03-28T02:52:09.328Z,100.00
2023-03-28T02:55:14.286Z,100.00
2023-03-28T02:58:04.090Z,100.00
2023-03-28T03:00:30.894Z,100.00
2023-03-28T03:02:57.320Z,100.00
2023-03-28T03:05:23.709Z,100.00
2023-03-28T03:07:50.633Z,100.00
2023-03-28T03:10:18.228Z,100.00
2023-03-28T03:12:45.377Z,100.00
2023-03-28T03:15:12.096Z,100.00
2023-03-28T03:17:38.633Z,100.00
2023-03-28T03:20:07.259Z,100.00
2023-03-28T03:22:34.542Z,100.00
2023-03-28T03:25:06.541Z,100.00
2023-03-28T03:27:34.479Z,100.00
2023-03-28T03:30:00.920Z,100.00
2023-03-28T03:32:27.335Z,100.00
2023-03-28T03:34:53.780Z,100.00
2023-03-28T03:37:20.727Z,100.00
2023-03-28T03:39:47.144Z,100.00
2023-03-28T03:42:13.573Z,100.00
2023-03-28T03:44:40.007Z,100.00
2023-03-28T03:47:06.603Z,100.00
2023-03-28T03:49:32.980Z,100.00
2023-03-28T03:51:59.354Z,100.00
2023-03-28T03:54:26.059Z,100.00
2023-03-28T03:56:52.477Z,100.00
2023-03-28T03:59:18.969Z,100.00
2023-03-28T04:01:45.630Z,100.00
2023-03-28T04:04:12.955Z,100.00
2023-03-28T04:06:39.466Z,100.00
2023-03-28T04:09:07.803Z,100.00
2023-03-28T04:11:35.174Z,100.00
2023-03-28T04:14:01.729Z,100.00
2023-03-28T04:16:29.729Z,100.00
2023-03-28T04:19:07.728Z,100.00
2023-03-28T04:21:35.205Z,100.00
2023-03-28T04:24:01.797Z,100.00
2023-03-28T04:26:29.360Z,100.00
2023-03-28T04:28:56.309Z,100.00
2023-03-28T04:31:29.473Z,100.00
2023-03-28T04:33:57.576Z,100.00
2023-03-28T04:36:25.730Z,100.00
2023-03-28T04:38:52.714Z,100.00
2023-03-28T04:41:19.149Z,100.00
2023-03-28T04:43:45.575Z,100.00
2023-03-28T04:46:12.010Z,100.00
2023-03-28T04:48:38.405Z,100.00
2023-03-28T04:51:05.228Z,100.00
2023-03-28T04:53:31.756Z,100.00
2023-03-28T04:56:00.052Z,100.00
2023-03-28T04:58:26.721Z,100.00
2023-03-28T05:00:53.880Z,100.00
2023-03-28T05:03:22.642Z,100.00
2023-03-28T05:05:51.401Z,100.00
2023-03-28T05:08:20.162Z,100.00
2023-03-28T05:10:46.819Z,100.00
2023-03-28T05:13:13.724Z,100.00
2023-03-28T05:15:40.223Z,100.00
2023-03-28T05:18:06.684Z,100.00
2023-03-28T05:20:34.446Z,100.00
2023-03-28T05:23:01.305Z,100.00
2023-03-28T05:25:27.716Z,100.00
2023-03-28T05:27:54.266Z,100.00
2023-03-28T05:30:21.071Z,100.00
2023-03-28T05:32:47.588Z,100.00
2023-03-28T05:35:15.359Z,100.00
2023-03-28T05:37:44.149Z,100.00
2023-03-28T05:40:14.321Z,100.00
2023-03-28T05:42:40.823Z,100.00
2023-03-28T05:45:08.785Z,100.00
2023-03-28T05:47:35.861Z,100.00
2023-03-28T05:50:03.394Z,100.00
2023-03-28T05:52:30.007Z,100.00
2023-03-28T05:54:57.390Z,100.00
2023-03-28T05:57:25.058Z,100.00
2023-03-28T05:59:51.566Z,100.00
2023-03-28T06:02:21.103Z,100.00
2023-03-28T06:04:48.598Z,100.00
2023-03-28T06:07:15.953Z,100.00
2023-03-28T06:09:42.900Z,100.00
2023-03-28T06:12:09.419Z,100.00
2023-03-28T06:14:35.811Z,100.00
2023-03-28T06:17:02.217Z,100.00
2023-03-28T06:19:28.638Z,100.00
2023-03-28T06:21:55.038Z,100.00
2023-03-28T06:24:21.701Z,100.00
2023-03-28T06:26:48.124Z,100.00
2023-03-28T06:29:16.070Z,100.00
2023-03-28T06:31:42.764Z,100.00
2023-03-28T06:34:09.267Z,100.00
2023-03-28T06:36:35.733Z,100.00
2023-03-28T06:39:02.189Z,100.00
2023-03-28T06:41:28.633Z,100.00
2023-03-28T06:43:55.065Z,100.00
2023-03-28T06:46:21.691Z,100.00
2023-03-28T06:48:48.152Z,100.00
2023-03-28T06:51:14.646Z,100.00
2023-03-28T06:53:41.063Z,100.00
2023-03-28T06:56:08.206Z,100.00
2023-03-28T06:58:34.575Z,100.00
2023-03-28T07:01:01.729Z,100.00
2023-03-28T07:03:30.111Z,100.00
2023-03-28T07:05:56.946Z,100.00
2023-03-28T07:08:23.861Z,100.00
2023-03-28T07:10:50.518Z,98.47
2023-03-28T07:13:17.084Z,99.03
2023-03-28T07:15:43.566Z,98.20
2023-03-28T07:18:12.828Z,94.35
2023-03-28T07:20:40.715Z,93.95
2023-03-28T07:23:07.378Z,92.44
2023-03-28T07:25:34.260Z,91.66
2023-03-28T07:28:00.858Z,88.68
2023-03-28T07:30:27.347Z,89.71
2023-03-28T07:33:02.716Z,92.10
2023-03-28T07:35:41.608Z,91.82
2023-03-28T07:38:08.061Z,92.63
2023-03-28T07:40:34.513Z,91.09
2023-03-28T07:43:01.205Z,93.75
2023-03-28T07:45:27.633Z,94.28
2023-03-28T07:47:54.082Z,90.49
2023-03-28T07:50:21.132Z,88.20
2023-03-28T07:52:48.762Z,88.00
2023-03-28T07:55:15.274Z,86.22
2023-03-28T07:57:41.679Z,82.02
2023-03-28T08:00:12.921Z,77.10
2023-03-28T08:02:44.175Z,80.89
2023-03-28T08:05:11.585Z,78.73
2023-03-28T08:07:38.035Z,77.97
2023-03-28T08:10:04.925Z,75.81
2023-03-28T08:12:31.856Z,78.14
2023-03-28T08:14:58.435Z,77.31
2023-03-28T08:17:26.437Z,77.98
2023-03-28T08:19:53.338Z,76.69
2023-03-28T08:22:19.722Z,78.11
2023-03-28T08:24:46.916Z,72.89
2023-03-28T08:27:13.698Z,71.19
2023-03-28T08:29:40.144Z,69.94
2023-03-28T08:32:07.512Z,68.57
2023-03-28T08:34:34.114Z,70.67
2023-03-28T08:37:00.514Z,70.20
2023-03-28T08:39:26.959Z,67.70
2023-03-28T08:42:18.618Z,67.39
2023-03-28T08:45:27.293Z,66.79
2023-03-28T08:48:07.952Z,70.87
2023-03-28T08:50:53.957Z,70.71
2023-03-28T08:53:26.619Z,68.13
2023-03-28T08:55:54.867Z,71.23
2023-03-28T08:58:23.439Z,71.49
2023-03-28T09:00:51.994Z,71.69
2023-03-28T09:03:21.362Z,72.80
2023-03-28T09:06:23.647Z,74.94
2023-03-28T09:08:54.223Z,74.21
2023-03-28T09:11:34.749Z,75.92
2023-03-28T09:14:23.892Z,76.54
2023-03-28T09:17:29.761Z,75.95
2023-03-28T09:20:17.691Z,76.02
2023-03-28T09:23:03.309Z,78.89
2023-03-28T09:25:41.011Z,77.38
2023-03-28T09:28:15.987Z,75.21
2023-03-28T09:30:48.494Z,75.20
2023-03-28T09:33:21.254Z,75.07
2023-03-28T09:35:50.330Z,74.86
2023-03-28T09:38:21.705Z,78.14
2023-03-28T09:40:52.885Z,78.28
2023-03-28T09:43:34.371Z,77.90
2023-03-28T09:46:11.819Z,76.34
2023-03-28T09:48:40.034Z,76.33
2023-03-28T09:51:13.292Z,77.03
2023-03-28T09:53:39.640Z,74.67
2023-03-28T09:56:16.022Z,72.63
2023-03-28T09:58:56.907Z,72.08
2023-03-28T10:01:45.257Z,72.82
2023-03-28T10:04:14.673Z,72.31
2023-03-28T10:06:42.241Z,73.94
2023-03-28T10:09:15.973Z,73.88
2023-03-28T10:11:57.472Z,70.32
2023-03-28T10:14:46.225Z,71.42
2023-03-28T10:17:21.051Z,68.13
2023-03-28T10:19:48.428Z,66.63
2023-03-28T10:22:24.999Z,62.45
2023-03-28T10:24:51.964Z,61.13
2023-03-28T10:27:38.549Z,62.76
2023-03-28T10:30:13.668Z,61.81
2023-03-28T10:32:41.352Z,59.61
2023-03-28T10:35:21.174Z,60.38
2023-03-28T10:37:48.580Z,60.94
2023-03-28T10:40:18.088Z,61.06
2023-03-28T10:42:45.971Z,61.34
2023-03-28T10:45:33.558Z,61.39
2023-03-28T10:48:02.312Z,59.23
2023-03-28T10:50:40.676Z,58.49
2023-03-28T10:53:10.409Z,59.30
2023-03-28T10:55:41.059Z,60.36
2023-03-28T10:58:30.829Z,58.22
2023-03-28T11:01:19.463Z,57.30
2023-03-28T11:04:04.036Z,60.04
2023-03-28T11:06:44.808Z,55.92
2023-03-28T11:09:20.012Z,56.54
2023-03-28T11:12:05.111Z,57.09
2023-03-28T11:14:45.576Z,54.40
2023-03-28T11:17:26.869Z,55.66
2023-03-28T11:20:17.181Z,56.02
2023-03-28T11:23:06.930Z,58.98
2023-03-28T11:26:13.186Z,57.43
2023-03-28T11:29:09.681Z,55.04
2023-03-28T11:32:23.619Z,56.77
2023-03-28T11:35:08.827Z,54.76
2023-03-28T11:37:55.139Z,56.47
2023-03-28T11:40:33.660Z,54.27
2023-03-28T11:43:13.577Z,54.47
2023-03-28T11:45:52.121Z,55.89
2023-03-28T11:48:26.246Z,57.52
2023-03-28T11:51:03.149Z,57.54
2023-03-28T11:53:37.461Z,53.85
2023-03-28T11:56:31.091Z,54.61
2023-03-28T11:59:06.115Z,54.08
2023-03-28T12:01:38.931Z,54.96
2023-03-28T12:04:22.418Z,56.59
2023-03-28T12:07:06.718Z,56.49
2023-03-28T12:09:45.333Z,57.02
2023-03-28T12:12:30.419Z,57.55
2023-03-28T12:15:05.069Z,54.72
2023-03-28T12:17:45.051Z,56.15
2023-03-28T12:20:22.943Z,57.61
2023-03-28T12:22:54.061Z,57.23
2023-03-28T12:25:39.285Z,57.33
2023-03-28T12:28:13.212Z,57.52
2023-03-28T12:30:56.346Z,56.57
2023-03-28T12:33:37.324Z,56.71
2023-03-28T12:36:34.348Z,56.31
2023-03-28T12:39:34.808Z,54.06
2023-03-28T12:42:09.249Z,55.03
2023-03-28T12:44:52.347Z,54.50
2023-03-28T12:47:24.156Z,52.29
2023-03-28T12:50:04.948Z,52.90
2023-03-28T12:52:33.482Z,53.81
2023-03-28T12:55:02.532Z,53.51
2023-03-28T12:57:41.260Z,55.35
2023-03-28T13:00:36.144Z,54.45
2023-03-28T13:03:28.464Z,54.27
2023-03-28T13:06:20.043Z,54.87
2023-03-28T13:09:13.258Z,52.68
2023-03-28T13:11:42.947Z,54.15
2023-03-28T13:14:35.795Z,53.43
2023-03-28T13:17:18.230Z,54.40
2023-03-28T13:19:52.819Z,54.15
2023-03-28T13:22:27.697Z,53.42
2023-03-28T13:24:55.174Z,52.06
2023-03-28T13:27:32.903Z,50.76
2023-03-28T13:30:14.386Z,53.21
2023-03-28T13:32:55.694Z,53.99
2023-03-28T13:35:44.437Z,55.07
2023-03-28T13:38:22.888Z,53.68
2023-03-28T13:40:53.163Z,55.04
2023-03-28T13:43:48.067Z,55.96
2023-03-28T13:46:26.030Z,54.62
2023-03-28T13:49:01.143Z,55.05
2023-03-28T13:51:32.530Z,54.55
2023-03-28T13:53:59.078Z,54.81
2023-03-28T13:56:30.095Z,54.24
2023-03-28T13:58:58.663Z,55.57
2023-03-28T14:01:32.996Z,53.96
2023-03-28T14:03:59.522Z,55.57
2023-03-28T14:06:29.107Z,55.13
2023-03-28T14:08:59.890Z,57.66
2023-03-28T14:11:31.693Z,55.04
2023-03-28T14:14:06.109Z,54.67
2023-03-28T14:16:34.637Z,56.71
2023-03-28T14:19:03.703Z,55.43
2023-03-28T14:21:31.972Z,57.29
2023-03-28T14:24:07.148Z,55.34
2023-03-28T14:26:37.401Z,54.09
2023-03-28T14:29:09.830Z,53.30
2023-03-28T14:31:40.271Z,53.14
2023-03-28T14:34:25.380Z,55.87
2023-03-28T14:37:08.534Z,54.69
2023-03-28T14:39:39.014Z,56.90
2023-03-28T14:42:08.430Z,55.58
2023-03-28T14:44:40.325Z,56.75
2023-03-28T14:47:08.139Z,58.91
2023-03-28T14:49:37.460Z,57.44
2023-03-28T14:52:12.092Z,59.31
2023-03-28T14:54:44.574Z,56.73
2023-03-28T14:57:15.478Z,59.09
2023-03-28T14:59:44.883Z,58.18
2023-03-28T15:02:28.378Z,58.67
2023-03-28T15:04:59.874Z,58.19
2023-03-28T15:07:28.090Z,59.26
2023-03-28T15:10:05.034Z,59.34
2023-03-28T15:12:33.496Z,60.66
2023-03-28T15:15:02.498Z,61.21
2023-03-28T15:17:29.181Z,61.00
2023-03-28T15:19:58.531Z,60.80
2023-03-28T15:22:28.836Z,60.68
2023-03-28T15:24:57.978Z,60.52
2023-03-28T15:27:32.611Z,60.58
2023-03-28T15:30:06.706Z,61.81
2023-03-28T15:32:33.543Z,62.58
2023-03-28T15:35:03.204Z,62.52
2023-03-28T15:37:41.059Z,62.10
2023-03-28T15:40:22.903Z,61.91
2023-03-28T15:42:51.013Z,62.74
2023-03-28T15:45:20.766Z,63.02
2023-03-28T15:47:50.178Z,63.20
2023-03-28T15:50:33.302Z,61.85
2023-03-28T15:53:04.099Z,63.38
2023-03-28T15:55:31.314Z,61.44
2023-03-28T15:57:58.446Z,61.74
2023-03-28T16:00:38.220Z,61.47
2023-03-28T16:03:19.964Z,62.09
2023-03-28T16:06:09.725Z,61.06
2023-03-28T16:08:41.373Z,60.69
2023-03-28T16:11:17.362Z,61.76
2023-03-28T16:13:44.156Z,62.09
2023-03-28T16:16:18.814Z,61.74
2023-03-28T16:18:45.514Z,62.91
2023-03-28T16:21:12.233Z,63.88
2023-03-28T16:23:38.772Z,65.40
2023-03-28T16:26:06.895Z,64.95
2023-03-28T16:28:33.334Z,64.66
2023-03-28T16:30:59.704Z,64.96
2023-03-28T16:33:26.239Z,63.57
2023-03-28T16:35:53.168Z,64.34
2023-03-28T16:38:19.712Z,64.65
2023-03-28T16:40:48.453Z,64.41
2023-03-28T16:43:16.467Z,65.18
2023-03-28T16:45:47.840Z,64.98
2023-03-28T16:48:14.904Z,65.02
2023-03-28T16:50:41.495Z,65.56
2023-03-28T16:53:07.883Z,65.75
2023-03-28T16:55:34.317Z,66.18
2023-03-28T16:58:00.935Z,65.46
2023-03-28T17:00:27.472Z,65.73
2023-03-28T17:02:54.814Z,65.29
2023-03-28T17:05:21.297Z,66.64
2023-03-28T17:07:47.655Z,65.90
2023-03-28T17:10:14.046Z,66.45
2023-03-28T17:12:41.296Z,67.78
2023-03-28T17:15:09.442Z,67.60
2023-03-28T17:17:35.932Z,67.70
2023-03-28T17:20:02.442Z,67.39
2023-03-28T17:22:28.852Z,66.31
2023-03-28T17:24:57.084Z,68.18
2023-03-28T17:27:23.629Z,66.86
2023-03-28T17:29:51.218Z,67.11
2023-03-28T17:32:17.715Z,68.88
2023-03-28T17:34:44.272Z,67.57
2023-03-28T17:37:10.633Z,68.06
2023-03-28T17:39:39.280Z,68.32
2023-03-28T17:42:05.705Z,68.93
2023-03-28T17:44:32.684Z,69.17
2023-03-28T17:47:00.583Z,68.23
2023-03-28T17:49:27.094Z,69.73
2023-03-28T17:51:53.536Z,69.92
2023-03-28T17:54:20.026Z,69.11
2023-03-28T17:56:46.464Z,68.59
2023-03-28T17:59:13.441Z,68.84
2023-03-28T18:01:39.975Z,68.35
2023-03-28T18:04:06.867Z,68.99
2023-03-28T18:06:33.742Z,68.71
2023-03-28T18:09:00.201Z,68.35
2023-03-28T18:11:26.744Z,69.39
2023-03-28T18:13:56.814Z,68.33
2023-03-28T18:16:23.455Z,68.84
2023-03-28T18:18:49.883Z,68.80
2023-03-28T18:21:16.451Z,70.29
2023-03-28T18:23:43.425Z,70.89
2023-03-28T18:26:09.828Z,70.42
2023-03-28T18:28:36.640Z,70.70
2023-03-28T18:31:11.701Z,70.27
2023-03-28T18:33:38.970Z,70.37
2023-03-28T18:36:05.940Z,70.75
2023-03-28T18:38:38.241Z,71.25
2023-03-28T18:41:06.773Z,69.83
2023-03-28T18:43:33.614Z,69.70
2023-03-28T18:46:01.032Z,71.71
2023-03-28T18:48:28.361Z,72.34
2023-03-28T18:50:55.790Z,72.82
2023-03-28T18:53:22.530Z,73.90
2023-03-28T18:55:49.356Z,75.53
2023-03-28T18:58:16.121Z,75.24
2023-03-28T19:00:42.727Z,74.57
2023-03-28T19:03:09.418Z,74.67
2023-03-28T19:05:37.076Z,74.41
2023-03-28T19:08:04.258Z,74.57
2023-03-28T19:10:30.838Z,75.63
2023-03-28T19:12:57.310Z,76.21
2023-03-28T19:15:24.153Z,76.83
2023-03-28T19:17:50.864Z,78.41
2023-03-28T19:20:17.438Z,78.19
2023-03-28T19:22:44.188Z,79.30
2023-03-28T19:25:10.688Z,80.20
2023-03-28T19:27:37.671Z,81.91
2023-03-28T19:30:05.034Z,84.10
2023-03-28T19:32:34.938Z,88.92
2023-03-28T19:35:01.410Z,94.21
2023-03-28T19:37:27.897Z,99.34
2023-03-28T19:39:54.270Z,100.00
2023-03-28T19:42:21.353Z,100.00
2023-03-28T19:44:47.751Z,100.00
2023-03-28T19:47:14.134Z,100.00
2023-03-28T19:49:40.825Z,100.00
2023-03-28T19:52:09.763Z,100.00
2023-03-28T19:54:37.237Z,100.00
2023-03-28T19:57:07.462Z,100.00
2023-03-28T19:59:34.629Z,100.00
2023-03-28T20:02:01.260Z,100.00
2023-03-28T20:04:28.202Z,100.00
2023-03-28T20:06:54.753Z,100.00
2023-03-28T20:09:21.542Z,100.00
2023-03-28T20:11:47.913Z,100.00
2023-03-28T20:14:17.173Z,100.00
2023-03-28T20:16:43.599Z,100.00
2023-03-28T20:19:10.782Z,100.00
2023-03-28T20:21:37.248Z,100.00
2023-03-28T20:24:04.098Z,100.00
2023-03-28T20:26:31.682Z,100.00
2023-03-28T20:28:59.460Z,100.00
2023-03-28T20:31:26.932Z,100.00
2023-03-28T20:33:54.685Z,100.00
2023-03-28T20:36:21.163Z,100.00
2023-03-28T20:38:48.020Z,100.00
2023-03-28T20:41:17.171Z,100.00
2023-03-28T20:43:46.997Z,100.00
2023-03-28T20:46:18.228Z,100.00
2023-03-28T20:48:46.462Z,100.00
2023-03-28T20:51:15.780Z,100.00
2023-03-28T20:53:44.101Z,100.00
2023-03-28T20:56:11.658Z,100.00
2023-03-28T20:58:42.520Z,100.00
2023-03-28T21:01:12.037Z,100.00
2023-03-28T21:03:46.670Z,100.00
2023-03-28T21:06:16.909Z,100.00
2023-03-28T21:08:45.939Z,100.00
2023-03-28T21:11:17.255Z,100.00
2023-03-28T21:13:44.275Z,100.00
2023-03-28T21:16:12.139Z,100.00
2023-03-28T21:18:38.636Z,100.00
2023-03-28T21:21:06.917Z,100.00
2023-03-28T21:23:37.743Z,100.00
2023-03-28T21:26:08.342Z,100.00
2023-03-28T21:28:35.777Z,100.00
2023-03-28T21:31:09.002Z,100.00
2023-03-28T21:33:36.679Z,100.00
2023-03-28T21:36:06.593Z,100.00
2023-03-28T21:38:33.871Z,100.00
2023-03-28T21:41:00.606Z,100.00
2023-03-28T21:43:27.169Z,100.00
2023-03-28T21:45:53.692Z,100.00
2023-03-28T21:48:21.036Z,100.00
2023-03-28T21:50:58.976Z,100.00
2023-03-28T21:53:27.774Z,100.00
2023-03-28T21:55:56.056Z,100.00
2023-03-28T21:58:23.532Z,100.00
2023-03-28T22:00:50.271Z,100.00
2023-03-28T22:03:16.934Z,100.00
2023-03-28T22:05:43.831Z,100.00
2023-03-28T22:08:14.530Z,100.00
2023-03-28T22:10:55.468Z,100.00
2023-03-28T22:13:23.695Z,100.00
2023-03-28T22:15:52.350Z,100.00
2023-03-28T22:18:19.359Z,100.00
2023-03-28T22:20:49.091Z,100.00
2023-03-28T22:23:15.448Z,100.00
2023-03-28T22:25:42.449Z,100.00
2023-03-28T22:28:10.285Z,100.00
2023-03-28T22:30:40.086Z,100.00
2023-03-28T22:33:09.022Z,100.00
2023-03-28T22:35:36.213Z,100.00
2023-03-28T22:38:03.543Z,100.00
2023-03-28T22:40:30.006Z,100.00
2023-03-28T22:42:56.956Z,100.00
2023-03-28T22:45:25.002Z,100.00
2023-03-28T22:47:51.463Z,100.00
2023-03-28T22:50:19.013Z,100.00
2023-03-28T22:52:46.450Z,100.00
2023-03-28T22:55:13.334Z,100.00
2023-03-28T22:57:43.567Z,100.00
2023-03-28T23:00:12.298Z,100.00
2023-03-28T23:02:39.505Z,100.00
2023-03-28T23:05:07.817Z,100.00
2023-03-28T23:07:35.874Z,100.00
2023-03-28T23:10:08.439Z,100.00
2023-03-28T23:12:35.043Z,100.00
2023-03-28T23:15:01.411Z,100.00
2023-03-28T23:17:28.466Z,100.00
2023-03-28T23:19:55.011Z,100.00
2023-03-28T23:22:22.337Z,100.00
2023-03-28T23:24:51.564Z,100.00
2023-03-28T23:27:19.551Z,100.00
2023-03-28T23:29:46.167Z,100.00
2023-03-28T23:32:12.617Z,100.00
2023-03-28T23:34:40.184Z,100.00
2023-03-28T23:37:07.088Z,100.00
2023-03-28T23:39:33.486Z,100.00
2023-03-28T23:41:59.838Z,100.00
2023-03-28T23:44:27.743Z,100.00
2023-03-28T23:46:56.150Z,100.00
2023-03-28T23:49:22.580Z,100.00
2023-03-28T23:51:49.043Z,100.00
2023-03-28T23:54:18.534Z,100.00
2023-03-28T23:56:45.608Z,100.00
2023-03-28T23:59:12.082Z,100.00
